Time;durP1;ratioP1;P1;durP2;ratioP2;P2;SDS_P1;SDS_P2;PMS_P1;PMS_P2;Temp;Humidity;BMP_temperature;BMP_pressure;BME280_temperature;BME280_humidity;BME280_pressure;Samples;Min_cycle;Max_cycle;Signal;HPM_P1;HPM_P2
2022/11/27 00:00:07;;;;;;;18.70;13.63;;;;;;;2.01;100.00;99390.13;4953288;28;20322;-78
2022/11/27 00:02:34;;;;;;;21.50;13.73;;;;;;;1.96;100.00;99391.94;4953224;28;20222;-78
2022/11/27 00:05:00;;;;;;;27.50;16.57;;;;;;;1.90;100.00;99392.03;4953259;28;20216;-78
2022/11/27 00:07:27;;;;;;;25.10;14.33;;;;;;;1.87;100.00;99386.00;4952895;28;20220;-80
2022/11/27 00:09:59;;;;;;;22.40;14.83;;;;;;;1.90;100.00;99380.75;4953351;28;20249;-78
2022/11/27 00:12:27;;;;;;;26.67;15.37;;;;;;;1.86;100.00;99389.50;4953270;28;20235;-79
2022/11/27 00:14:56;;;;;;;24.23;16.07;;;;;;;1.87;100.00;99386.00;4953099;28;20649;-78
2022/11/27 00:17:25;;;;;;;22.30;14.60;;;;;;;1.88;100.00;99379.88;4952881;28;20215;-81
2022/11/27 00:19:53;;;;;;;22.63;14.33;;;;;;;1.87;100.00;99375.56;4952955;28;20632;-78
2022/11/27 00:22:20;;;;;;;21.17;13.60;;;;;;;1.76;100.00;99372.25;4953099;28;20215;-77
2022/11/27 00:24:46;;;;;;;22.33;14.43;;;;;;;1.72;100.00;99374.03;4953266;28;20212;-78
2022/11/27 00:27:13;;;;;;;30.30;17.37;;;;;;;1.69;100.00;99365.41;4953059;28;20214;-78
2022/11/27 00:29:43;;;;;;;26.40;16.40;;;;;;;1.66;100.00;99355.91;4952955;28;20598;-78
2022/11/27 00:32:09;;;;;;;23.27;13.83;;;;;;;1.59;100.00;99348.22;4952981;28;20357;-79
2022/11/27 00:34:36;;;;;;;21.43;14.43;;;;;;;1.59;100.00;99353.41;4952910;28;20212;-77
2022/11/27 00:37:03;;;;;;;24.97;13.70;;;;;;;1.56;100.00;99359.53;4952604;28;20220;-80
2022/11/27 00:39:29;;;;;;;24.83;14.93;;;;;;;1.51;100.00;99353.53;4952859;28;20222;-77
2022/11/27 00:41:59;;;;;;;22.77;14.70;;;;;;;1.57;100.00;99349.97;4953001;28;20230;-77
2022/11/27 00:44:39;;;;;;;24.10;14.83;;;;;;;1.51;100.00;99352.66;4952918;28;20596;-77
2022/11/27 00:47:06;;;;;;;18.40;12.43;;;;;;;1.47;100.00;99340.56;4952304;28;20311;-79
2022/11/27 00:49:33;;;;;;;24.07;14.47;;;;;;;1.41;100.00;99340.66;4952972;28;20208;-80
2022/11/27 00:51:59;;;;;;;22.17;14.20;;;;;;;1.41;100.00;99340.66;4952913;28;20239;-78
2022/11/27 00:54:28;;;;;;;22.87;14.60;;;;;;;1.39;100.00;99340.66;4952746;28;20222;-77
2022/11/27 00:56:59;;;;;;;19.00;12.47;;;;;;;1.35;100.00;99331.16;4952441;28;20675;-77
2022/11/27 00:59:27;;;;;;;22.97;14.57;;;;;;;1.36;100.00;99330.28;4952643;28;20215;-78
2022/11/27 01:01:54;;;;;;;20.13;13.17;;;;;;;1.31;100.00;99326.03;4952897;28;20581;-78
2022/11/27 01:04:22;;;;;;;24.47;15.67;;;;;;;1.24;100.00;99314.81;4952667;28;20219;-77
2022/11/27 01:06:48;;;;;;;22.23;14.40;;;;;;;1.25;100.00;99316.56;4952360;28;20214;-79
2022/11/27 01:09:15;;;;;;;24.30;15.70;;;;;;;1.24;100.00;99311.38;4952772;28;20215;-79
2022/11/27 01:11:42;;;;;;;23.57;14.50;;;;;;;1.28;100.00;99308.69;4953695;28;20576;-78
2022/11/27 01:14:13;;;;;;;23.67;13.87;;;;;;;1.25;100.00;99305.28;4956025;28;20590;-79
2022/11/27 01:16:46;;;;;;;21.07;14.83;;;;;;;1.23;100.00;99302.69;4955953;28;20214;-78
2022/11/27 01:19:14;;;;;;;19.87;13.53;;;;;;;1.17;100.00;99312.34;4956178;28;20221;-79
2022/11/27 01:21:44;;;;;;;23.33;14.03;;;;;;;1.18;100.00;99309.69;4955913;28;20240;-79
2022/11/27 01:24:12;;;;;;;23.33;14.07;;;;;;;1.15;100.00;99307.16;4955916;28;20538;-79
2022/11/27 01:26:38;;;;;;;22.83;14.37;;;;;;;1.17;100.00;99307.97;4955502;28;20224;-79
2022/11/27 01:29:05;;;;;;;24.90;15.33;;;;;;;1.20;100.00;99302.75;4955900;28;20217;-77
2022/11/27 01:31:33;;;;;;;22.87;14.10;;;;;;;1.11;100.00;99302.84;4955586;28;20236;-78
2022/11/27 01:34:05;;;;;;;21.77;13.90;;;;;;;1.07;100.00;99293.38;4955745;28;20212;-77
2022/11/27 01:36:32;;;;;;;25.90;14.50;;;;;;;1.08;100.00;99294.22;4955529;28;20215;-77
2022/11/27 01:39:01;;;;;;;21.03;13.87;;;;;;;1.04;100.00;99287.34;4955586;28;20223;-78
2022/11/27 01:41:31;;;;;;;22.97;13.80;;;;;;;1.00;100.00;99283.91;4955448;28;20235;-78
2022/11/27 01:43:59;;;;;;;23.83;16.07;;;;;;;0.99;100.00;99282.19;4955649;28;20211;-78
2022/11/27 01:46:34;;;;;;;23.07;15.17;;;;;;;1.07;100.00;99284.69;4955190;28;20216;-79
2022/11/27 01:49:22;;;;;;;23.43;14.70;;;;;;;1.04;100.00;99275.19;4955565;28;20216;-79
2022/11/27 01:51:53;;;;;;;23.60;15.10;;;;;;;1.12;100.00;99277.69;4955311;28;20706;-79
2022/11/27 01:54:22;;;;;;;24.97;15.50;;;;;;;1.09;100.00;99278.59;4955651;28;20569;-79
2022/11/27 01:56:51;;;;;;;23.17;15.20;;;;;;;1.07;100.00;99275.16;4955009;28;20225;-79
2022/11/27 01:59:19;;;;;;;22.53;14.40;;;;;;;1.01;100.00;99259.63;4955107;28;20211;-79
2022/11/27 02:01:47;;;;;;;26.53;17.40;;;;;;;1.03;100.00;99268.25;4955259;28;20225;-79
2022/11/27 02:04:14;;;;;;;24.80;15.80;;;;;;;1.08;100.00;99270.78;4955173;28;20222;-80
2022/11/27 02:06:40;;;;;;;30.23;17.43;;;;;;;1.14;100.00;99261.16;4954911;28;20626;-78
2022/11/27 02:09:07;;;;;;;25.27;14.97;;;;;;;1.18;100.00;99262.81;4955258;28;20215;-78
2022/11/27 02:11:42;;;;;;;28.83;17.03;;;;;;;1.27;100.00;99267.91;4955032;28;20266;-77
2022/11/27 02:14:15;;;;;;;25.67;15.97;;;;;;;1.21;100.00;99265.41;4955099;28;20222;-78
2022/11/27 02:16:51;;;;;;;27.37;14.20;;;;;;;1.11;100.00;99248.19;4954693;28;20483;-79
2022/11/27 02:19:33;;;;;;;27.13;17.53;;;;;;;1.16;100.00;99250.75;4955199;28;20211;-78
2022/11/27 02:22:06;;;;;;;24.37;13.87;;;;;;;1.10;100.00;99254.28;4954829;28;20220;-78
2022/11/27 02:24:49;;;;;;;26.70;15.23;;;;;;;1.08;100.00;99250.84;4953864;28;20218;-78
2022/11/27 02:27:43;;;;;;;24.93;13.77;;;;;;;1.02;100.00;99248.31;4954732;28;20215;-78
2022/11/27 02:30:11;;;;;;;23.60;14.00;;;;;;;0.96;100.00;99251.00;4954949;28;20615;-78
2022/11/27 02:32:42;;;;;;;23.37;15.13;;;;;;;0.92;100.00;99251.91;4954664;28;20227;-78
2022/11/27 02:35:14;;;;;;;24.67;15.30;;;;;;;0.90;100.00;99252.81;4954667;28;20215;-78
2022/11/27 02:37:47;;;;;;;23.87;14.13;;;;;;;0.88;100.00;99245.06;4954567;28;20203;-78
2022/11/27 02:40:20;;;;;;;22.90;13.40;;;;;;;0.88;100.00;99255.47;4954729;28;20241;-78
2022/11/27 02:42:52;;;;;;;20.77;13.70;;;;;;;0.83;100.00;99248.59;4954519;28;20266;-78
2022/11/27 02:45:24;;;;;;;23.77;14.60;;;;;;;0.79;100.00;99252.97;4954529;28;20224;-77
2022/11/27 02:47:50;;;;;;;25.67;14.67;;;;;;;0.76;100.00;99245.22;4953970;28;20682;-77
2022/11/27 02:50:21;;;;;;;22.67;13.47;;;;;;;0.74;100.00;99241.75;4954581;28;20405;-77
2022/11/27 02:52:50;;;;;;;19.10;13.17;;;;;;;0.73;100.00;99244.38;4954515;28;20259;-78
2022/11/27 02:55:22;;;;;;;26.70;13.77;;;;;;;0.69;100.00;99234.91;4954310;28;20299;-77
2022/11/27 02:57:50;;;;;;;24.17;13.93;;;;;;;0.66;100.00;99234.91;4954018;28;20216;-77
2022/11/27 03:00:17;;;;;;;20.00;13.77;;;;;;;0.66;100.00;99241.00;4953949;28;20239;-78
2022/11/27 03:02:50;;;;;;;21.37;12.93;;;;;;;0.64;100.00;99229.75;4954097;28;20689;-78
2022/11/27 03:05:20;;;;;;;20.90;13.50;;;;;;;0.62;100.00;99234.09;4954337;28;20238;-78
2022/11/27 03:07:52;;;;;;;29.67;17.20;;;;;;;0.65;100.00;99234.06;4953921;28;20211;-78
2022/11/27 03:10:22;;;;;;;27.90;16.60;;;;;;;0.70;100.00;99226.22;4953966;28;20235;-78
2022/11/27 03:12:49;;;;;;;24.57;15.63;;;;;;;0.72;100.00;99230.50;4953684;28;20243;-77
2022/11/27 03:15:16;;;;;;;27.27;16.20;;;;;;;0.73;100.00;99231.34;4954226;28;20218;-77
2022/11/27 03:17:53;;;;;;;25.83;16.27;;;;;;;0.70;100.00;99232.28;4953738;28;20236;-78
2022/11/27 03:20:23;;;;;;;27.27;16.50;;;;;;;0.71;100.00;99244.41;4953932;28;20239;-78
2022/11/27 03:22:50;;;;;;;23.43;15.80;;;;;;;0.74;100.00;99239.16;4953813;28;20222;-78
2022/11/27 03:25:16;;;;;;;26.90;15.63;;;;;;;0.68;100.00;99238.38;4953570;28;20208;-78
2022/11/27 03:27:48;;;;;;;24.07;14.33;;;;;;;0.67;100.00;99232.31;4953555;28;20212;-78
2022/11/27 03:30:15;;;;;;;22.30;14.03;;;;;;;0.65;100.00;99220.19;4953638;28;20235;-78
2022/11/27 03:32:42;;;;;;;19.13;13.03;;;;;;;0.55;100.00;99216.84;4953556;28;20231;-77
2022/11/27 03:35:14;;;;;;;20.73;12.67;;;;;;;0.51;100.00;99209.97;4953532;28;20231;-78
2022/11/27 03:37:40;;;;;;;22.87;14.20;;;;;;;0.41;100.00;99220.50;4953355;28;20215;-77
2022/11/27 03:40:09;;;;;;;24.27;15.03;;;;;;;0.39;100.00;99217.91;4969108;23;20223;-84
2022/11/27 03:42:46;;;;;;;22.50;14.33;;;;;;;0.40;100.00;99222.25;4972723;28;20211;-84
2022/11/27 03:45:22;;;;;;;22.47;14.17;;;;;;;0.34;100.00;99221.44;4973034;28;20217;-84
2022/11/27 03:47:58;;;;;;;19.37;11.67;;;;;;;0.29;100.00;99218.03;4972832;28;20602;-84
2022/11/27 03:50:36;;;;;;;20.93;12.43;;;;;;;0.24;100.00;99225.03;4967119;28;20231;-84
2022/11/27 03:53:10;;;;;;;19.70;12.33;;;;;;;0.22;100.00;99227.66;4953414;28;20231;-84
2022/11/27 03:55:42;;;;;;;20.30;13.53;;;;;;;0.25;100.00;99217.22;4953643;28;20196;-84
2022/11/27 03:58:14;;;;;;;22.40;13.63;;;;;;;0.27;100.00;99225.88;4953452;28;20222;-84
2022/11/27 04:00:44;;;;;;;27.80;15.23;;;;;;;0.33;100.00;99219.75;4953281;28;20234;-84
2022/11/27 04:03:12;;;;;;;25.30;16.10;;;;;;;0.35;100.00;99218.84;4953453;28;20211;-84
2022/11/27 04:05:40;;;;;;;23.47;14.77;;;;;;;0.26;100.00;99208.53;4953090;28;20212;-84
2022/11/27 04:08:06;;;;;;;22.43;13.07;;;;;;;0.24;100.00;99209.44;4953140;28;20214;-84
2022/11/27 04:10:33;;;;;;;19.57;12.47;;;;;;;0.18;100.00;99206.91;4953297;28;20327;-84
2022/11/27 04:12:59;;;;;;;24.97;14.80;;;;;;;0.17;100.00;99203.47;4953117;28;20603;-84
2022/11/27 04:15:26;;;;;;;25.03;15.43;;;;;;;0.18;100.00;99210.38;4953025;28;20215;-84
2022/11/27 04:17:52;;;;;;;21.90;13.60;;;;;;;0.20;100.00;99211.19;4953172;28;20211;-84
2022/11/27 04:20:18;;;;;;;22.93;15.33;;;;;;;0.23;100.00;99213.78;4953275;28;20234;-84
2022/11/27 04:22:46;;;;;;;21.47;14.57;;;;;;;0.21;100.00;99205.16;4953123;28;20211;-84
2022/11/27 04:25:13;;;;;;;23.23;14.90;;;;;;;0.23;100.00;99203.38;4953115;28;20566;-84
2022/11/27 04:27:39;;;;;;;27.67;16.60;;;;;;;0.20;100.00;99212.97;4953011;28;20212;-84
2022/11/27 04:30:07;;;;;;;27.13;16.27;;;;;;;0.26;100.00;99208.53;4952822;28;20227;-84
2022/11/27 04:32:34;;;;;;;21.20;13.43;;;;;;;0.21;100.00;99197.34;4953215;28;20240;-85
2022/11/27 04:35:00;;;;;;;25.90;13.77;;;;;;;0.12;100.00;99194.84;4952897;28;20212;-84
2022/11/27 04:37:27;;;;;;;20.90;12.47;;;;;;;0.10;100.00;99190.53;4952783;28;20215;-84
2022/11/27 04:39:55;;;;;;;25.90;16.63;;;;;;;0.05;100.00;99198.41;4952743;28;20230;-84
2022/11/27 04:42:21;;;;;;;21.90;13.27;;;;;;;0.04;100.00;99190.59;4952931;28;20207;-84
2022/11/27 04:44:48;;;;;;;22.43;12.97;;;;;;;0.02;100.00;99188.00;4953112;28;20208;-84
2022/11/27 04:47:14;;;;;;;22.00;12.07;;;;;;;0.04;100.00;99180.22;4955097;28;20212;-84
2022/11/27 04:49:41;;;;;;;21.23;13.23;;;;;;;0.07;100.00;99180.19;4956882;28;20223;-84
2022/11/27 04:52:09;;;;;;;23.40;12.80;;;;;;;0.12;100.00;99181.84;4956703;28;20242;-84
2022/11/27 04:54:36;;;;;;;21.40;12.00;;;;;;;0.08;100.00;99180.16;4956812;28;20211;-84
2022/11/27 04:57:04;;;;;;;20.90;13.20;;;;;;;0.08;100.00;99177.56;4956059;28;20211;-84
2022/11/27 04:59:30;;;;;;;19.23;12.30;;;;;;;0.08;100.00;99182.75;4956475;28;20693;-84
2022/11/27 05:01:57;;;;;;;21.57;14.20;;;;;;;0.13;100.00;99180.97;4956699;28;20224;-84
2022/11/27 05:04:23;;;;;;;22.00;14.10;;;;;;;0.14;100.00;99182.69;4956600;28;20220;-84
2022/11/27 05:06:50;;;;;;;21.90;13.97;;;;;;;0.11;100.00;99185.34;4956169;28;20216;-84
2022/11/27 05:09:17;;;;;;;18.60;12.07;;;;;;;0.08;100.00;99182.75;4956350;28;20238;-84
2022/11/27 05:11:43;;;;;;;16.43;11.40;;;;;;;0.08;100.00;99182.75;4955995;28;20235;-84
2022/11/27 05:14:15;;;;;;;19.03;11.83;;;;;;;0.07;100.00;99169.78;4956186;28;20681;-84
2022/11/27 05:16:42;;;;;;;37.80;15.73;;;;;;;0.06;100.00;99174.13;4956064;28;20215;-84
2022/11/27 05:19:10;;;;;;;17.57;10.87;;;;;;;0.08;100.00;99172.34;4955942;28;20218;-91
2022/11/27 05:21:37;;;;;;;19.50;12.63;;;;;;;0.13;100.00;99170.56;4956067;28;20714;-87
2022/11/27 05:24:04;;;;;;;19.63;12.87;;;;;;;0.03;100.00;99163.78;4956008;28;20208;-85
2022/11/27 05:26:31;;;;;;;17.83;11.53;;;;;;;0.00;100.00;99160.34;4955901;28;20219;-84
2022/11/27 05:28:58;;;;;;;17.20;10.97;;;;;;;-0.06;100.00;99166.47;4956215;28;20215;-84
2022/11/27 05:31:25;;;;;;;15.90;10.40;;;;;;;-0.12;100.00;99158.72;4956066;28;20236;-84
2022/11/27 05:33:52;;;;;;;14.53;9.13;;;;;;;-0.17;100.00;99164.88;4956397;28;20235;-84
2022/11/27 05:36:19;;;;;;;19.00;11.83;;;;;;;-0.17;100.00;99164.00;4955911;28;20211;-84
2022/11/27 05:38:45;;;;;;;18.60;11.07;;;;;;;-0.19;100.00;99151.00;4955928;28;20267;-84
2022/11/27 05:41:12;;;;;;;19.77;11.97;;;;;;;-0.11;100.00;99157.00;4955789;28;20251;-84
2022/11/27 05:43:38;;;;;;;29.93;12.67;;;;;;;-0.08;100.00;99153.53;4956135;28;20209;-84
2022/11/27 05:46:06;;;;;;;15.10;10.13;;;;;;;-0.04;100.00;99156.91;4955528;28;20682;-84
2022/11/27 05:48:34;;;;;;;15.77;10.37;;;;;;;-0.02;100.00;99155.16;4956134;28;20275;-85
2022/11/27 05:51:01;;;;;;;14.93;10.23;;;;;;;0.00;100.00;99153.41;4955709;28;20236;-84
2022/11/27 05:53:27;;;;;;;14.77;10.30;;;;;;;0.05;100.00;99161.13;4955863;28;20229;-84
2022/11/27 05:55:54;;;;;;;13.80;9.17;;;;;;;0.13;100.00;99165.38;4955771;28;20212;-84
2022/11/27 05:58:20;;;;;;;14.97;10.73;;;;;;;0.19;100.00;99160.09;4955375;28;20300;-80
2022/11/27 06:00:47;;;;;;;18.73;12.17;;;;;;;0.36;100.00;99167.69;4955733;28;20597;-84
2022/11/27 06:03:13;;;;;;;23.07;13.00;;;;;;;0.32;100.00;99172.06;4955693;28;20208;-85
2022/11/27 06:05:41;;;;;;;18.03;12.13;;;;;;;0.33;100.00;99171.19;4955594;28;20216;-84
2022/11/27 06:08:08;;;;;;;19.07;11.90;;;;;;;0.33;100.00;99172.94;4955175;28;20223;-84
2022/11/27 06:10:34;;;;;;;17.50;11.70;;;;;;;0.32;100.00;99169.47;4955707;28;20445;-85
2022/11/27 06:13:01;;;;;;;14.97;10.53;;;;;;;0.30;100.00;99163.44;4957710;28;20601;-84
2022/11/27 06:15:27;;;;;;;18.07;11.37;;;;;;;0.25;100.00;99151.38;4957132;28;20237;-84
2022/11/27 06:17:54;;;;;;;20.13;12.10;;;;;;;0.24;100.00;99157.44;4955413;28;20218;-85
2022/11/27 06:20:20;;;;;;;22.53;13.03;;;;;;;0.14;100.00;99154.09;4955435;28;20236;-84
2022/11/27 06:22:48;;;;;;;16.67;11.33;;;;;;;0.15;100.00;99155.84;4956064;28;20204;-84
2022/11/27 06:25:15;;;;;;;18.53;11.77;;;;;;;0.16;100.00;99154.94;4955802;28;20223;-85
2022/11/27 06:27:41;;;;;;;18.83;11.57;;;;;;;0.17;100.00;99156.66;4955742;28;20215;-85
2022/11/27 06:30:09;;;;;;;22.10;13.60;;;;;;;0.12;100.00;99162.78;4954787;28;20729;-85
2022/11/27 06:32:35;;;;;;;22.17;12.53;;;;;;;0.04;100.00;99165.50;4954896;28;20235;-85
2022/11/27 06:35:02;;;;;;;20.20;11.90;;;;;;;0.02;100.00;99172.41;4955130;28;20222;-85
2022/11/27 06:37:28;;;;;;;21.77;12.50;;;;;;;-0.13;100.00;99164.81;4954593;28;20211;-85
2022/11/27 06:39:56;;;;;;;17.13;10.77;;;;;;;-0.16;100.00;99167.41;4954547;28;20212;-85
2022/11/27 06:42:23;;;;;;;20.10;12.17;;;;;;;-0.24;100.00;99163.22;4954709;28;20258;-85
2022/11/27 06:44:49;;;;;;;18.10;12.27;;;;;;;-0.25;100.00;99161.47;4955256;28;20215;-85
2022/11/27 06:47:16;;;;;;;19.83;12.50;;;;;;;-0.28;100.00;99155.44;4954751;28;20222;-85
2022/11/27 06:49:42;;;;;;;19.77;12.63;;;;;;;-0.30;100.00;99152.00;4954701;28;20215;-85
2022/11/27 06:52:09;;;;;;;20.13;11.83;;;;;;;-0.31;100.00;99150.28;4954703;28;20222;-85
2022/11/27 06:54:35;;;;;;;18.67;11.30;;;;;;;-0.39;100.00;99162.50;4954523;28;20696;-85
2022/11/27 06:57:04;;;;;;;19.70;13.20;;;;;;;-0.40;100.00;99152.97;4954278;28;20207;-85
2022/11/27 06:59:31;;;;;;;20.20;12.40;;;;;;;-0.39;100.00;99141.72;4954643;28;20210;-85
2022/11/27 07:01:57;;;;;;;15.23;10.70;;;;;;;-0.36;100.00;99152.94;4954522;28;20771;-85
2022/11/27 07:04:24;;;;;;;19.57;12.93;;;;;;;-0.35;100.00;99156.38;4954777;28;20208;-85
2022/11/27 07:06:50;;;;;;;19.33;11.37;;;;;;;-0.33;100.00;99144.25;4954331;28;20211;-85
2022/11/27 07:09:17;;;;;;;22.10;13.77;;;;;;;-0.29;100.00;99143.34;4953712;28;20218;-85
2022/11/27 07:11:43;;;;;;;18.40;11.23;;;;;;;-0.31;100.00;99150.28;4954425;28;20234;-85
2022/11/27 07:14:11;;;;;;;17.33;10.40;;;;;;;-0.36;100.00;99147.75;4954140;28;20239;-85
2022/11/27 07:16:37;;;;;;;18.17;11.47;;;;;;;-0.29;100.00;99143.34;4953544;28;20218;-85
2022/11/27 07:19:06;;;;;;;20.43;11.00;;;;;;;-0.29;100.00;99148.53;4954096;28;20580;-85
2022/11/27 07:21:33;;;;;;;21.60;13.23;;;;;;;-0.20;100.00;99145.84;4954124;28;20240;-85
2022/11/27 07:24:01;;;;;;;19.37;12.07;;;;;;;-0.22;100.00;99141.50;4953849;28;20208;-85
2022/11/27 07:26:29;;;;;;;19.17;12.33;;;;;;;-0.19;100.00;99127.63;4953824;28;20558;-85
2022/11/27 07:28:56;;;;;;;23.07;12.30;;;;;;;-0.10;100.00;99125.78;4953866;28;20214;-85
2022/11/27 07:31:26;;;;;;;17.00;12.20;;;;;;;-0.02;100.00;99111.00;4954110;28;20228;-85
2022/11/27 07:33:53;;;;;;;24.03;13.30;;;;;;;0.08;100.00;99109.13;4953981;28;20236;-85
2022/11/27 07:36:22;;;;;;;24.03;13.93;;;;;;;0.18;100.00;99108.13;4953601;28;20214;-85
2022/11/27 07:38:49;;;;;;;21.10;12.67;;;;;;;0.24;100.00;99095.03;4954064;28;20215;-85
2022/11/27 07:41:16;;;;;;;21.67;12.43;;;;;;;0.30;100.00;99090.63;4953541;28;20239;-85
2022/11/27 07:43:44;;;;;;;23.03;12.63;;;;;;;0.33;100.00;99090.56;4954071;28;20211;-85
2022/11/27 07:46:12;;;;;;;19.60;12.70;;;;;;;0.36;100.00;99090.56;4953664;28;20219;-83
2022/11/27 07:48:40;;;;;;;25.00;13.90;;;;;;;0.44;100.00;99088.69;4953705;28;20214;-84
2022/11/27 07:51:09;;;;;;;19.27;12.67;;;;;;;0.44;100.00;99083.50;4953610;28;20235;-83
2022/11/27 07:53:36;;;;;;;20.87;13.73;;;;;;;0.41;100.00;99082.69;4953594;28;20253;-84
2022/11/27 07:56:03;;;;;;;19.87;12.87;;;;;;;0.45;100.00;99080.00;4953416;28;20219;-81
2022/11/27 07:58:29;;;;;;;19.67;11.83;;;;;;;0.47;100.00;99080.00;4953522;28;20215;-79
2022/11/27 08:00:56;;;;;;;19.17;12.30;;;;;;;0.46;100.00;99081.75;4953531;28;20234;-86
2022/11/27 08:03:22;;;;;;;21.10;12.70;;;;;;;0.49;100.00;99081.69;4953554;28;20210;-87
2022/11/27 08:05:50;;;;;;;19.33;11.73;;;;;;;0.56;100.00;99085.91;4953774;28;20211;-86
2022/11/27 08:08:17;;;;;;;20.83;13.10;;;;;;;0.54;100.00;99085.09;4953445;28;20234;-87
2022/11/27 08:10:43;;;;;;;18.97;13.10;;;;;;;0.60;100.00;99089.34;4953651;28;20253;-87
2022/11/27 08:13:10;;;;;;;17.33;11.60;;;;;;;0.57;100.00;99095.44;4953558;28;20600;-85
2022/11/27 08:15:37;;;;;;;17.47;11.10;;;;;;;0.54;100.00;99095.50;4953478;28;20234;-85
2022/11/27 08:18:04;;;;;;;15.30;10.30;;;;;;;0.51;100.00;99090.31;4953337;28;20207;-86
2022/11/27 08:20:30;;;;;;;19.30;11.67;;;;;;;0.52;100.00;99084.25;4953222;28;20251;-86
2022/11/27 08:22:58;;;;;;;18.13;11.17;;;;;;;0.53;100.00;99082.50;4956556;28;20219;-85
2022/11/27 08:25:25;;;;;;;17.53;12.00;;;;;;;0.53;100.00;99083.38;4957039;28;20221;-85
2022/11/27 08:27:51;;;;;;;17.83;11.63;;;;;;;0.53;100.00;99072.09;4956929;28;20701;-85
2022/11/27 08:30:18;;;;;;;19.80;12.33;;;;;;;0.60;100.00;99064.19;4956343;28;20231;-86
2022/11/27 08:32:44;;;;;;;21.87;11.77;;;;;;;0.70;100.00;99063.19;4957117;28;20207;-87
2022/11/27 08:35:12;;;;;;;17.30;11.90;;;;;;;0.70;100.00;99060.59;4956193;28;20215;-86
2022/11/27 08:37:38;;;;;;;16.57;10.47;;;;;;;0.72;100.00;99064.00;4956663;28;20226;-87
2022/11/27 08:40:08;;;;;;;14.93;10.57;;;;;;;0.75;100.00;99063.94;4956031;28;20227;-87
2022/11/27 08:42:35;;;;;;;15.00;9.93;;;;;;;0.75;100.00;99063.09;4957164;28;20572;-86
2022/11/27 08:45:01;;;;;;;14.00;8.97;;;;;;;0.79;100.00;99070.81;4956741;29;20218;-87
2022/11/27 08:47:28;;;;;;;12.57;9.47;;;;;;;0.86;100.00;99066.41;4956453;29;20208;-87
2022/11/27 08:49:54;;;;;;;14.47;9.40;;;;;;;0.94;100.00;99067.13;4956978;28;20435;-87
2022/11/27 08:52:21;;;;;;;14.00;9.43;;;;;;;0.95;100.00;99056.69;4956152;29;20215;-86
2022/11/27 08:54:47;;;;;;;13.03;9.43;;;;;;;1.06;100.00;99054.75;4956815;29;20238;-86
2022/11/27 08:57:16;;;;;;;13.10;10.00;;;;;;;1.16;100.00;99052.88;4955782;29;20325;-86
2022/11/27 08:59:43;;;;;;;14.50;10.57;;;;;;;1.27;100.00;99043.97;4956252;28;20678;-84
2022/11/27 09:02:12;;;;;;;17.27;11.10;;;;;;;1.42;100.00;99041.06;4957014;28;20312;-83
2022/11/27 09:04:38;;;;;;;16.03;10.67;;;;;;;1.54;100.00;99040.84;4956863;28;20204;-84
2022/11/27 09:07:05;;;;;;;14.67;10.50;;;;;;;1.76;100.00;99034.34;4956408;28;20480;-85
2022/11/27 09:09:31;;;;;;;15.30;10.43;;;;;;;2.01;100.00;99034.66;4956706;28;20224;-88
2022/11/27 09:11:58;;;;;;;16.53;10.33;;;;;;;2.18;100.00;99038.66;4955223;28;20231;-89
2022/11/27 09:14:25;;;;;;;17.17;10.73;;;;;;;2.37;100.00;99034.75;4954813;28;20254;-89
2022/11/27 09:16:52;;;;;;;14.77;9.20;;;;;;;2.45;100.00;99039.78;4956274;28;20223;-84
2022/11/27 09:19:20;;;;;;;13.53;9.60;;;;;;;2.46;100.00;99044.97;4960044;28;20301;-85
2022/11/27 09:21:49;;;;;;;10.83;8.23;;;;;;;2.40;100.00;99037.28;4965063;28;20228;-86
2022/11/27 09:24:16;;;;;;;12.03;8.40;;;;;;;2.38;100.00;99039.06;4956941;29;20207;-85
2022/11/27 09:26:43;;;;;;;12.43;9.00;;;;;;;2.36;100.00;99046.06;4955907;29;20211;-90
2022/11/27 09:29:10;;;;;;;12.40;9.07;;;;;;;2.43;100.00;99037.22;4958975;29;20211;-93
2022/11/27 09:31:38;;;;;;;11.93;8.63;;;;;;;2.61;100.00;99023.75;4955798;28;20325;-86
2022/11/27 09:34:05;;;;;;;11.47;8.90;;;;;;;2.63;100.00;99010.66;4955636;29;20231;-94
2022/11/27 09:36:31;;;;;;;14.53;8.90;;;;;;;2.61;100.00;99013.31;4957166;29;20247;-91
2022/11/27 09:38:58;;;;;;;10.63;7.83;;;;;;;2.59;100.00;99009.88;4956403;29;20211;-94
2022/11/27 09:41:47;;;;;;;12.13;9.00;;;;;;;2.58;100.00;99008.16;4956586;28;20239;-95
2022/11/27 09:44:24;;;;;;;12.50;9.87;;;;;;;2.55;100.00;99036.94;4954606;28;20306;-93
2022/11/27 09:46:58;;;;;;;12.67;9.70;;;;;;;2.53;100.00;99036.13;4956677;29;20226;-96
2022/11/27 09:49:29;;;;;;;11.37;9.07;;;;;;;2.53;100.00;99028.28;4956143;29;20629;-94
2022/11/27 09:52:00;;;;;;;14.43;9.80;;;;;;;2.51;100.00;99019.63;4958093;28;20303;-93
2022/11/27 09:54:36;;;;;;;12.37;8.93;;;;;;;2.54;100.00;99016.97;4960333;29;20231;-94
2022/11/27 09:57:04;;;;;;;13.67;9.20;;;;;;;2.60;100.00;99002.91;4956448;29;20203;-92
2022/11/27 09:59:39;;;;;;;13.27;10.27;;;;;;;2.68;100.00;98996.59;4956822;29;20249;-91
2022/11/27 10:02:16;;;;;;;13.10;8.97;;;;;;;2.79;100.00;98978.94;4956051;28;20231;-89
2022/11/27 10:04:42;;;;;;;13.83;9.60;;;;;;;2.85;100.00;98986.59;4955634;29;20211;-86
2022/11/27 10:07:18;;;;;;;13.27;9.27;;;;;;;2.85;100.00;98973.56;4955404;29;20571;-84
2022/11/27 10:09:56;;;;;;;12.30;9.03;;;;;;;2.83;100.00;98977.97;4937721;29;20216;-91
2022/11/27 10:12:31;;;;;;;14.93;8.83;;;;;;;2.86;100.00;98971.78;4936712;29;20230;-87
2022/11/27 10:15:06;;;;;;;12.23;9.50;;;;;;;2.88;100.00;98976.06;4936134;29;20236;-86
2022/11/27 10:17:40;;;;;;;10.90;8.20;;;;;;;2.82;100.00;98976.22;4936169;29;20215;-85
2022/11/27 10:20:17;;;;;;;13.63;9.80;;;;;;;2.77;100.00;98975.50;4936933;29;20239;-88
2022/11/27 10:22:54;;;;;;;12.93;9.90;;;;;;;2.70;100.00;98981.75;4936881;29;20212;-85
2022/11/27 10:25:34;;;;;;;11.87;9.37;;;;;;;2.68;100.00;98967.91;4935753;29;20223;-84
2022/11/27 10:28:12;;;;;;;15.10;11.03;;;;;;;2.67;100.00;98960.97;4937032;29;20230;-95
2022/11/27 10:30:45;;;;;;;14.80;11.23;;;;;;;2.69;100.00;98959.16;5119230;23;20236;-92
2022/11/27 10:53:04;;;;;;;11.37;8.27;;;;;;;3.50;100.00;98943.94;5751691;23;20331;-93
2022/11/27 10:55:58;;;;;;;9.97;7.70;;;;;;;3.55;100.00;98939.41;4951112;29;20211;-91
2022/11/27 10:58:33;;;;;;;10.93;7.70;;;;;;;3.76;100.00;98933.56;4938787;29;20204;-84
2022/11/27 11:01:01;;;;;;;11.30;8.37;;;;;;;3.77;100.00;98929.19;4925201;29;20236;-80
2022/11/27 11:03:28;;;;;;;11.93;8.23;;;;;;;3.84;100.00;98930.72;4916083;29;20209;-79
2022/11/27 11:06:01;;;;;;;10.13;7.70;;;;;;;4.00;100.00;98917.13;4917127;29;20214;-96
2022/11/27 11:08:28;;;;;;;8.53;7.00;;;;;;;4.07;100.00;98910.81;4925332;29;20621;-82
2022/11/27 11:10:59;;;;;;;8.10;6.60;;;;;;;4.07;100.00;98895.13;4934497;29;20233;-80
2022/11/27 11:13:28;;;;;;;7.77;6.30;;;;;;;4.17;100.00;98893.91;4934821;29;20216;-80
2022/11/27 11:15:58;;;;;;;11.43;6.80;;;;;;;4.16;100.00;98884.34;4935603;29;20695;-90
2022/11/27 11:18:27;;;;;;;9.50;6.47;;;;;;;4.25;100.00;98872.72;4936698;29;20215;-92
2022/11/27 11:20:58;;;;;;;8.87;6.80;;;;;;;4.31;100.00;98875.16;4936172;29;20225;-96
2022/11/27 11:23:30;;;;;;;9.10;6.57;;;;;;;4.30;100.00;98873.44;4935513;29;20218;-95
2022/11/27 11:26:01;;;;;;;8.43;6.20;;;;;;;4.36;100.00;98858.41;4935173;29;20335;-92
2022/11/27 11:28:30;;;;;;;8.27;6.47;;;;;;;4.37;100.00;98857.50;4935063;29;20241;-93
2022/11/27 11:31:03;;;;;;;8.50;6.33;;;;;;;4.38;100.00;98840.88;4934801;29;20396;-92
2022/11/27 11:33:31;;;;;;;9.90;6.97;;;;;;;4.48;100.00;98831.84;4935918;29;20229;-95
2022/11/27 11:36:11;;;;;;;8.73;6.30;;;;;;;4.45;100.00;98831.91;4938283;29;20224;-95
2022/11/27 11:38:44;;;;;;;9.90;6.17;;;;;;;4.39;100.00;98833.91;4939140;29;20226;-93
2022/11/27 11:41:12;;;;;;;8.13;5.97;;;;;;;4.37;100.00;98833.94;4937289;29;20228;-92
2022/11/27 11:46:32;;;;;;;10.17;6.60;;;;;;;4.38;100.00;98829.56;4936636;29;20189;-92
2022/11/27 11:49:02;;;;;;;10.20;6.53;;;;;;;4.39;100.00;98826.91;4935808;29;20221;-91